createdAt,value
2018-07-08T00:01:22.325Z,95.70
2018-07-08T00:03:50.743Z,96.00
2018-07-08T00:06:19.113Z,95.90
2018-07-08T00:08:47.505Z,96.20
2018-07-08T00:11:15.892Z,96.30
2018-07-08T00:13:44.272Z,96.70
2018-07-08T00:16:12.671Z,96.60
2018-07-08T00:18:41.080Z,97.60
2018-07-08T00:21:09.449Z,97.20
2018-07-08T00:23:37.805Z,97.20
2018-07-08T00:26:06.168Z,97.50
2018-07-08T00:28:34.557Z,97.60
2018-07-08T00:31:02.988Z,97.80
2018-07-08T00:33:31.413Z,97.90
2018-07-08T00:35:59.754Z,97.90
2018-07-08T00:38:28.067Z,98.20
2018-07-08T00:43:24.478Z,98.70
2018-07-08T00:45:52.771Z,98.70
2018-07-08T00:48:21.138Z,98.50
2018-07-08T00:50:49.492Z,98.50
2018-07-08T00:53:17.885Z,98.90
2018-07-08T00:55:46.309Z,98.60
2018-07-08T00:58:14.634Z,98.70
2018-07-08T01:00:43.105Z,98.90
2018-07-08T01:03:11.580Z,99.20
2018-07-08T01:05:39.921Z,99.10
2018-07-08T01:08:08.406Z,99.20
2018-07-08T01:10:36.841Z,99.10
2018-07-08T01:13:05.235Z,99.20
2018-07-08T01:15:33.598Z,99.10
2018-07-08T01:18:01.967Z,99.00
2018-07-08T01:20:30.299Z,99.00
2018-07-08T01:22:58.679Z,98.90
2018-07-08T01:25:38.217Z,99.10
2018-07-08T01:28:06.588Z,99.30
2018-07-08T01:30:34.993Z,99.60
2018-07-08T01:33:03.357Z,99.50
2018-07-08T01:35:31.765Z,99.50
2018-07-08T01:38:00.162Z,99.60
2018-07-08T01:40:28.554Z,99.50
2018-07-08T01:42:56.921Z,99.60
2018-07-08T01:45:25.320Z,99.90
2018-07-08T01:47:53.642Z,99.80
2018-07-08T01:50:22.048Z,99.90
2018-07-08T01:52:50.454Z,99.80
2018-07-08T01:55:18.830Z,99.90
2018-07-08T01:57:47.175Z,99.90
2018-07-08T02:00:15.532Z,99.90
2018-07-08T02:02:43.886Z,99.90
2018-07-08T02:05:12.295Z,99.90
2018-07-08T02:07:40.650Z,99.90
2018-07-08T02:10:08.997Z,99.90
2018-07-08T02:12:37.405Z,99.90
2018-07-08T02:15:06.102Z,99.90
2018-07-08T02:17:34.430Z,99.90
2018-07-08T02:20:02.798Z,99.90
2018-07-08T02:22:31.089Z,99.90
2018-07-08T02:24:59.544Z,99.90
2018-07-08T02:27:27.905Z,99.90
2018-07-08T02:29:56.226Z,99.90
2018-07-08T02:32:24.528Z,99.90
2018-07-08T02:34:53.013Z,99.90
2018-07-08T02:37:21.354Z,99.90
2018-07-08T02:39:49.727Z,99.90
2018-07-08T02:42:18.119Z,99.90
2018-07-08T02:44:46.494Z,99.90
2018-07-08T02:47:14.816Z,99.90
2018-07-08T02:49:43.222Z,99.90
2018-07-08T02:52:11.633Z,99.90
2018-07-08T02:54:39.984Z,99.90
2018-07-08T02:57:08.322Z,99.90
2018-07-08T02:59:36.696Z,99.90
2018-07-08T03:02:05.072Z,99.90
2018-07-08T03:09:29.502Z,99.90
2018-07-08T03:11:57.856Z,99.90
2018-07-08T03:14:26.299Z,99.90
2018-07-08T03:16:54.632Z,99.90
2018-07-08T03:19:23.103Z,99.90
2018-07-08T03:21:51.782Z,99.90
2018-07-08T03:24:20.287Z,99.90
2018-07-08T03:31:44.860Z,99.90
2018-07-08T03:34:13.273Z,99.90
2018-07-08T03:36:41.631Z,99.90
2018-07-08T03:39:10.670Z,99.90
2018-07-08T03:41:38.951Z,99.90
2018-07-08T03:44:08.105Z,99.90
2018-07-08T03:46:36.919Z,99.90
2018-07-08T03:49:05.290Z,99.90
2018-07-08T03:51:33.625Z,99.90
2018-07-08T03:54:01.970Z,99.90
2018-07-08T03:56:30.330Z,99.90
2018-07-08T03:58:58.761Z,99.90
2018-07-08T04:01:27.097Z,99.90
2018-07-08T04:03:55.510Z,99.90
2018-07-08T04:06:23.850Z,99.90
2018-07-08T04:08:52.212Z,99.90
2018-07-08T04:11:20.558Z,99.90
2018-07-08T04:13:48.986Z,99.90
2018-07-08T04:16:17.398Z,99.90
2018-07-08T04:18:45.794Z,99.90
2018-07-08T04:21:14.106Z,99.90
2018-07-08T04:23:42.496Z,99.90
2018-07-08T04:26:10.843Z,99.90
2018-07-08T04:28:39.207Z,99.90
2018-07-08T04:31:07.594Z,99.90
2018-07-08T04:33:35.934Z,99.90
2018-07-08T04:36:04.289Z,99.90
2018-07-08T04:41:00.697Z,99.90
2018-07-08T04:43:29.105Z,99.90
2018-07-08T04:45:57.495Z,99.90
2018-07-08T04:48:25.855Z,99.90
2018-07-08T04:50:54.257Z,99.90
2018-07-08T04:53:22.615Z,99.90
2018-07-08T04:55:50.972Z,99.90
2018-07-08T04:58:19.345Z,99.90
2018-07-08T05:00:47.713Z,99.90
2018-07-08T05:03:16.074Z,99.40
2018-07-08T05:05:44.473Z,99.40
2018-07-08T05:08:13.415Z,99.30
2018-07-08T05:10:41.754Z,99.60
2018-07-08T05:13:10.074Z,99.40
2018-07-08T05:23:02.574Z,99.40
2018-07-08T05:25:30.906Z,99.20
2018-07-08T05:27:59.261Z,99.00
2018-07-08T05:30:27.647Z,99.50
2018-07-08T05:32:56.062Z,99.00
2018-07-08T05:35:24.441Z,99.60
2018-07-08T05:37:53.177Z,98.70
2018-07-08T05:40:21.572Z,99.00
2018-07-08T05:42:49.939Z,98.10
2018-07-08T05:45:18.272Z,98.00
2018-07-08T05:47:46.638Z,97.70
2018-07-08T05:50:15.042Z,97.00
2018-07-08T05:52:43.443Z,96.90
2018-07-08T05:55:11.870Z,96.50
2018-07-08T05:57:40.260Z,96.90
2018-07-08T06:00:08.803Z,95.70
2018-07-08T06:02:37.300Z,95.60
2018-07-08T06:05:05.717Z,95.20
2018-07-08T06:07:34.112Z,94.80
2018-07-08T06:10:02.495Z,94.00
2018-07-08T06:12:30.836Z,94.10
2018-07-08T06:14:59.162Z,93.10
2018-07-08T06:17:27.560Z,93.20
2018-07-08T06:19:56.066Z,92.60
2018-07-08T06:22:24.511Z,93.10
2018-07-08T06:24:52.841Z,93.10
2018-07-08T06:27:21.230Z,92.90
2018-07-08T06:32:17.670Z,93.20
2018-07-08T06:34:46.021Z,92.10
2018-07-08T06:37:14.423Z,91.00
2018-07-08T06:39:42.765Z,91.00
2018-07-08T06:42:11.192Z,90.00
2018-07-08T06:44:39.617Z,89.50
2018-07-08T06:47:08.008Z,89.80
2018-07-08T06:49:36.422Z,90.00
2018-07-08T06:52:05.374Z,88.40
2018-07-08T06:54:33.946Z,86.60
2018-07-08T06:57:02.677Z,87.40
2018-07-08T06:59:31.105Z,87.50
2018-07-08T07:01:59.498Z,84.80
2018-07-08T07:04:27.896Z,84.70
2018-07-08T07:06:56.325Z,82.80
2018-07-08T07:09:24.676Z,81.70
2018-07-08T07:11:53.037Z,79.30
2018-07-08T07:14:21.426Z,77.70
2018-07-08T07:16:49.802Z,77.30
2018-07-08T07:19:18.160Z,75.70
2018-07-08T07:21:46.511Z,76.00
2018-07-08T07:24:14.951Z,76.30
2018-07-08T07:26:43.282Z,76.00
2018-07-08T07:29:11.656Z,76.90
2018-07-08T07:31:40.116Z,75.90
2018-07-08T07:34:38.996Z,72.70
2018-07-08T07:37:08.469Z,72.20
2018-07-08T07:39:36.808Z,71.30
2018-07-08T07:42:06.876Z,71.80
2018-07-08T07:44:35.383Z,72.50
2018-07-08T07:47:04.022Z,71.70
2018-07-08T07:49:34.094Z,70.20
2018-07-08T07:52:02.519Z,69.90
2018-07-08T07:54:30.883Z,70.70
2018-07-08T07:56:59.276Z,67.70
2018-07-08T07:59:27.768Z,70.20
2018-07-08T08:01:56.218Z,67.70
2018-07-08T08:04:27.964Z,66.40
2018-07-08T08:06:56.805Z,67.10
2018-07-08T08:09:25.492Z,68.30
2018-07-08T08:11:53.936Z,67.50
2018-07-08T08:14:22.363Z,68.00
2018-07-08T08:16:58.247Z,66.20
2018-07-08T08:19:27.524Z,65.50
2018-07-08T08:21:59.989Z,60.10
2018-07-08T08:24:28.531Z,64.20
2018-07-08T08:27:02.726Z,65.80
2018-07-08T08:29:36.265Z,60.50
2018-07-08T08:32:05.816Z,63.30
2018-07-08T08:35:25.027Z,67.50
2018-07-08T08:37:54.660Z,67.30
2018-07-08T08:42:52.462Z,63.50
2018-07-08T08:45:24.538Z,66.50
2018-07-08T08:47:56.497Z,65.00
2018-07-08T08:50:25.112Z,66.60
2018-07-08T08:52:53.499Z,67.40
2018-07-08T08:55:22.067Z,66.30
2018-07-08T08:57:52.454Z,62.60
2018-07-08T09:00:21.451Z,64.40
2018-07-08T09:02:49.965Z,65.40
2018-07-08T09:05:27.970Z,58.40
2018-07-08T09:07:56.434Z,62.20
2018-07-08T09:10:24.820Z,61.20
2018-07-08T09:12:53.241Z,63.10
2018-07-08T09:15:21.694Z,59.10
2018-07-08T09:17:50.124Z,60.50
2018-07-08T09:20:18.804Z,58.60
2018-07-08T09:22:47.241Z,61.50
2018-07-08T09:25:15.624Z,60.80
2018-07-08T09:27:44.023Z,59.90
2018-07-08T09:30:12.415Z,59.10
2018-07-08T09:32:40.779Z,57.60
2018-07-08T09:35:09.219Z,53.90
2018-07-08T09:37:37.676Z,59.20
2018-07-08T09:40:06.101Z,51.10
2018-07-08T09:42:34.485Z,51.80
2018-07-08T09:45:02.908Z,56.00
2018-07-08T09:47:31.292Z,56.80
2018-07-08T09:49:59.844Z,55.90
2018-07-08T09:52:28.264Z,57.90
2018-07-08T09:54:56.709Z,52.20
2018-07-08T09:57:25.171Z,54.10
2018-07-08T09:59:53.597Z,56.70
2018-07-08T10:02:22.070Z,54.40
2018-07-08T10:04:50.506Z,53.60
2018-07-08T10:07:18.890Z,55.00
2018-07-08T10:09:47.280Z,53.10
2018-07-08T10:12:15.640Z,57.60
2018-07-08T10:14:44.042Z,52.40
2018-07-08T10:17:12.407Z,55.80
2018-07-08T10:19:40.920Z,52.00
2018-07-08T10:22:09.224Z,55.00
2018-07-08T10:27:16.917Z,53.60
2018-07-08T10:29:45.297Z,53.80
2018-07-08T10:34:42.765Z,53.40
2018-07-08T10:37:11.135Z,47.50
2018-07-08T10:39:43.072Z,46.80
2018-07-08T10:42:12.266Z,47.60
2018-07-08T10:44:43.442Z,48.70
2018-07-08T10:47:16.443Z,49.40
2018-07-08T10:49:44.843Z,43.00
2018-07-08T10:52:13.318Z,43.80
2018-07-08T10:54:46.955Z,48.00
2018-07-08T10:57:17.840Z,47.20
2018-07-08T10:59:52.220Z,47.00
2018-07-08T11:02:20.974Z,48.60
2018-07-08T11:04:50.436Z,47.50
2018-07-08T11:07:18.883Z,49.60
2018-07-08T11:09:47.291Z,51.70
2018-07-08T11:12:15.767Z,46.50
2018-07-08T11:14:44.217Z,46.30
2018-07-08T11:17:13.224Z,48.90
2018-07-08T11:19:41.655Z,51.10
2018-07-08T11:22:10.090Z,47.60
2018-07-08T11:24:38.470Z,49.00
2018-07-08T11:27:07.042Z,47.90
2018-07-08T11:29:35.408Z,48.80
2018-07-08T11:32:03.839Z,48.70
2018-07-08T11:34:32.283Z,49.20
2018-07-08T11:37:00.698Z,48.00
2018-07-08T11:39:29.079Z,47.90
2018-07-08T11:41:57.589Z,50.60
2018-07-08T11:44:27.018Z,49.50
2018-07-08T11:46:55.401Z,45.70
2018-07-08T11:49:23.820Z,47.90
2018-07-08T11:51:52.241Z,44.00
2018-07-08T11:54:20.691Z,44.60
2018-07-08T11:56:49.136Z,44.30
2018-07-08T11:59:17.537Z,46.40
2018-07-08T12:01:45.993Z,42.10
2018-07-08T12:04:14.429Z,44.50
2018-07-08T12:06:42.908Z,42.50
2018-07-08T12:09:11.331Z,43.90
2018-07-08T12:11:39.795Z,45.30
2018-07-08T12:14:08.216Z,43.40
2018-07-08T12:16:36.580Z,43.20
2018-07-08T12:19:05.044Z,41.80
2018-07-08T12:21:33.509Z,44.70
2018-07-08T12:24:01.886Z,43.70
2018-07-08T12:26:30.653Z,44.70
2018-07-08T12:28:59.039Z,45.80
2018-07-08T12:31:27.426Z,47.50
2018-07-08T12:33:55.808Z,46.40
2018-07-08T12:36:24.179Z,43.90
2018-07-08T12:38:52.613Z,44.90
2018-07-08T12:41:21.018Z,43.70
2018-07-08T12:43:49.518Z,44.80
2018-07-08T12:46:17.925Z,43.90
2018-07-08T12:48:46.315Z,45.20
2018-07-08T12:51:14.707Z,43.70
2018-07-08T12:53:43.051Z,46.70
2018-07-08T12:56:11.611Z,46.70
2018-07-08T12:58:40.078Z,47.40
2018-07-08T13:01:08.472Z,45.30
2018-07-08T13:03:36.955Z,45.90
2018-07-08T13:08:33.490Z,47.40
2018-07-08T13:13:29.991Z,47.50
2018-07-08T13:15:58.450Z,45.60
2018-07-08T13:18:26.863Z,46.00
2018-07-08T13:20:55.226Z,47.30
2018-07-08T13:23:23.657Z,48.40
2018-07-08T13:25:52.251Z,48.00
2018-07-08T13:28:20.798Z,48.70
2018-07-08T13:30:49.171Z,48.00
2018-07-08T13:33:17.822Z,49.10
2018-07-08T13:35:46.442Z,46.20
2018-07-08T13:38:14.910Z,46.80
2018-07-08T13:40:43.353Z,44.30
2018-07-08T13:43:12.299Z,47.10
2018-07-08T13:45:40.720Z,43.90
2018-07-08T13:48:09.651Z,44.60
2018-07-08T13:50:38.051Z,48.60
2018-07-08T13:53:06.448Z,45.80
2018-07-08T13:55:34.926Z,45.00
2018-07-08T13:58:03.305Z,44.90
2018-07-08T14:02:59.873Z,46.30
2018-07-08T14:05:28.305Z,46.20
2018-07-08T14:07:57.026Z,44.80
2018-07-08T14:10:25.622Z,45.30
2018-07-08T14:12:54.262Z,45.10
2018-07-08T14:15:25.662Z,45.00
2018-07-08T14:17:54.295Z,44.60
2018-07-08T14:20:23.199Z,44.00
2018-07-08T14:22:52.120Z,43.90
2018-07-08T14:25:21.465Z,43.00
2018-07-08T14:27:50.864Z,43.90
2018-07-08T14:30:21.160Z,45.20
2018-07-08T14:32:51.393Z,43.20
2018-07-08T14:35:22.004Z,45.40
2018-07-08T14:37:50.431Z,45.20
2018-07-08T14:40:18.830Z,47.70
2018-07-08T14:42:47.227Z,45.60
2018-07-08T14:45:15.942Z,44.80
2018-07-08T14:47:45.113Z,46.10
2018-07-08T14:52:41.844Z,45.50
2018-07-08T14:55:12.415Z,44.70
2018-07-08T14:57:40.788Z,44.40
2018-07-08T15:00:12.077Z,44.40
2018-07-08T15:02:40.709Z,44.20
2018-07-08T15:05:13.877Z,44.40
2018-07-08T15:07:42.399Z,45.40
2018-07-08T15:10:11.046Z,46.20
2018-07-08T15:12:39.646Z,46.00
2018-07-08T15:15:08.416Z,46.60
2018-07-08T15:17:37.042Z,46.60
2018-07-08T15:20:10.133Z,48.40
2018-07-08T15:22:38.717Z,47.40
2018-07-08T15:25:07.277Z,46.50
2018-07-08T15:27:36.082Z,45.00
2018-07-08T15:30:04.934Z,44.80
2018-07-08T15:32:33.680Z,44.90
2018-07-08T15:35:03.154Z,44.30
2018-07-08T15:37:34.510Z,45.50
2018-07-08T15:40:03.386Z,43.50
2018-07-08T15:42:34.051Z,42.00
2018-07-08T15:45:02.827Z,42.90
2018-07-08T15:47:31.630Z,43.30
2018-07-08T15:50:00.471Z,42.70
2018-07-08T15:52:29.538Z,45.10
2018-07-08T15:54:58.292Z,43.90
2018-07-08T15:57:29.220Z,43.50
2018-07-08T15:59:58.042Z,41.90
2018-07-08T16:02:28.574Z,44.50
2018-07-08T16:04:57.554Z,44.40
2018-07-08T16:07:28.170Z,43.00
2018-07-08T16:09:58.261Z,42.90
2018-07-08T16:12:26.817Z,41.10
2018-07-08T16:15:02.625Z,42.50
2018-07-08T16:17:31.157Z,40.90
2018-07-08T16:20:03.297Z,40.90
2018-07-08T16:22:31.837Z,42.20
2018-07-08T16:25:03.642Z,41.90
2018-07-08T16:27:33.727Z,42.00
2018-07-08T16:30:02.141Z,41.10
2018-07-08T16:32:30.557Z,43.00
2018-07-08T16:35:00.283Z,44.20
2018-07-08T16:37:28.669Z,44.40
2018-07-08T16:39:57.555Z,43.80
2018-07-08T16:42:26.009Z,42.30
2018-07-08T16:44:57.047Z,42.30
2018-07-08T16:47:27.500Z,41.00
2018-07-08T16:49:57.049Z,41.20
2018-07-08T16:52:25.487Z,41.90
2018-07-08T16:54:54.052Z,43.00
2018-07-08T16:57:22.437Z,42.40
2018-07-08T17:02:18.914Z,43.20
2018-07-08T17:04:47.239Z,43.20
2018-07-08T17:07:16.432Z,43.80
2018-07-08T17:09:45.051Z,43.20
2018-07-08T17:12:13.607Z,43.30
2018-07-08T17:14:42.079Z,43.50
2018-07-08T17:17:10.754Z,44.60
2018-07-08T17:19:42.679Z,44.10
2018-07-08T17:22:14.476Z,45.40
2018-07-08T17:24:42.983Z,44.70
2018-07-08T17:27:11.431Z,45.40
2018-07-08T17:29:41.916Z,45.30
2018-07-08T17:32:14.706Z,45.50
2018-07-08T17:34:46.507Z,45.90
2018-07-08T17:37:17.780Z,46.60
2018-07-08T17:39:49.108Z,48.30
2018-07-08T17:44:45.562Z,49.90
2018-07-08T17:47:14.105Z,49.50
2018-07-08T17:49:42.574Z,49.20
2018-07-08T17:52:10.999Z,50.10
2018-07-08T17:54:39.484Z,49.60
2018-07-08T17:57:07.876Z,50.60
2018-07-08T17:59:36.413Z,51.30
2018-07-08T18:02:05.021Z,51.40
2018-07-08T18:04:38.475Z,50.90
2018-07-08T18:07:10.146Z,51.30
2018-07-08T18:09:39.782Z,51.60
2018-07-08T18:12:10.047Z,51.70
2018-07-08T18:14:39.947Z,52.20
2018-07-08T18:17:09.162Z,51.50
2018-07-08T18:19:40.587Z,53.10
2018-07-08T18:22:09.790Z,53.50
2018-07-08T18:24:39.001Z,53.40
2018-07-08T18:27:10.966Z,52.10
2018-07-08T18:29:41.137Z,52.30
2018-07-08T18:32:12.113Z,53.60
2018-07-08T18:34:40.948Z,53.30
2018-07-08T18:37:09.658Z,52.80
2018-07-08T18:39:39.360Z,53.50
2018-07-08T18:42:09.791Z,54.40
2018-07-08T18:44:39.722Z,54.50
2018-07-08T18:47:09.653Z,54.10
2018-07-08T18:49:40.017Z,55.40
2018-07-08T18:52:10.096Z,54.80
2018-07-08T18:54:38.489Z,55.10
2018-07-08T18:57:07.754Z,55.00
2018-07-08T19:00:10.915Z,55.80
2018-07-08T19:02:39.408Z,56.20
2018-07-08T19:05:07.919Z,56.00
2018-07-08T19:07:36.375Z,55.30
2018-07-08T19:10:04.803Z,55.60
2018-07-08T19:12:33.253Z,56.60
2018-07-08T19:15:01.691Z,56.40
2018-07-08T19:17:30.105Z,57.00
2018-07-08T19:19:58.495Z,56.50
2018-07-08T19:22:26.881Z,57.00
2018-07-08T19:24:55.968Z,57.20
2018-07-08T19:27:24.361Z,57.90
2018-07-08T19:29:52.805Z,56.90
2018-07-08T19:32:21.322Z,56.80
2018-07-08T19:34:49.929Z,56.30
2018-07-08T19:37:18.332Z,55.60
2018-07-08T19:39:46.724Z,55.70
2018-07-08T19:42:15.082Z,55.80
2018-07-08T19:44:43.500Z,56.80
2018-07-08T19:47:12.696Z,56.50
2018-07-08T19:49:41.239Z,56.70
2018-07-08T19:52:09.747Z,56.90
2018-07-08T19:54:38.117Z,56.90
2018-07-08T19:57:06.493Z,58.40
2018-07-08T19:59:34.899Z,59.40
2018-07-08T20:02:03.349Z,57.70
2018-07-08T20:04:31.828Z,58.50
2018-07-08T20:07:00.323Z,58.00
2018-07-08T20:09:28.825Z,58.80
2018-07-08T20:11:59.635Z,59.10
2018-07-08T20:14:29.593Z,58.90
2018-07-08T20:16:59.255Z,59.60
2018-07-08T20:19:29.788Z,60.20
2018-07-08T20:21:58.935Z,60.40
2018-07-08T20:24:29.460Z,59.90
2018-07-08T20:26:59.740Z,61.60
2018-07-08T20:29:29.505Z,61.40
2018-07-08T20:31:58.941Z,61.30
2018-07-08T20:34:28.521Z,61.90
2018-07-08T20:36:58.088Z,62.10
2018-07-08T20:39:27.437Z,61.30
2018-07-08T20:41:57.859Z,61.00
2018-07-08T20:44:26.360Z,61.50
2018-07-08T20:46:54.765Z,63.50
2018-07-08T20:49:23.625Z,63.20
2018-07-08T20:51:52.101Z,64.00
2018-07-08T20:54:20.494Z,65.40
2018-07-08T20:56:49.641Z,66.20
2018-07-08T20:59:18.182Z,68.70
2018-07-08T21:01:46.637Z,67.60
2018-07-08T21:04:15.034Z,68.10
2018-07-08T21:06:43.452Z,68.10
2018-07-08T21:09:11.847Z,67.50
2018-07-08T21:11:40.214Z,67.80
2018-07-08T21:14:08.687Z,68.10
2018-07-08T21:16:37.124Z,70.00
2018-07-08T21:19:05.763Z,70.70
2018-07-08T21:21:34.121Z,71.50
2018-07-08T21:24:03.186Z,71.30
2018-07-08T21:26:31.588Z,71.60
2018-07-08T21:28:59.974Z,71.60
2018-07-08T21:31:28.396Z,71.20
2018-07-08T21:33:56.871Z,71.30
2018-07-08T21:36:25.292Z,73.40
2018-07-08T21:38:53.650Z,72.60
2018-07-08T21:41:22.020Z,72.20
2018-07-08T21:43:51.033Z,72.00
2018-07-08T21:46:19.775Z,72.00
2018-07-08T21:48:48.181Z,71.60
2018-07-08T21:51:16.850Z,72.80
2018-07-08T21:53:45.311Z,73.10
2018-07-08T21:56:14.436Z,73.70
2018-07-08T21:58:43.370Z,74.20
2018-07-08T22:01:15.939Z,75.80
2018-07-08T22:03:45.131Z,76.60
2018-07-08T22:06:14.280Z,77.00
2018-07-08T22:08:42.714Z,77.20
2018-07-08T22:11:11.291Z,77.60
2018-07-08T22:13:40.257Z,78.30
2018-07-08T22:16:08.564Z,78.40
2018-07-08T22:18:37.231Z,79.40
2018-07-08T22:21:06.232Z,80.30
2018-07-08T22:23:35.117Z,81.60
2018-07-08T22:26:03.884Z,81.40
2018-07-08T22:28:33.112Z,82.40
2018-07-08T22:31:01.806Z,81.90
2018-07-08T22:33:30.181Z,83.20
2018-07-08T22:35:58.520Z,84.60
2018-07-08T22:38:26.914Z,84.50
2018-07-08T22:40:55.331Z,85.30
2018-07-08T22:45:53.873Z,87.10
2018-07-08T22:48:22.374Z,87.70
2018-07-08T22:50:50.789Z,88.50
2018-07-08T22:53:19.262Z,89.20
2018-07-08T22:55:47.654Z,90.20
2018-07-08T22:58:15.998Z,90.10
2018-07-08T23:00:55.780Z,90.30
2018-07-08T23:03:55.949Z,90.70
2018-07-08T23:06:24.281Z,91.10
2018-07-08T23:08:53.118Z,91.40
2018-07-08T23:11:22.129Z,91.80
2018-07-08T23:13:51.747Z,91.40
2018-07-08T23:18:48.574Z,92.00
2018-07-08T23:21:16.962Z,91.30
2018-07-08T23:23:45.423Z,91.60
2018-07-08T23:26:13.822Z,91.70
2018-07-08T23:28:42.157Z,92.00
2018-07-08T23:31:10.905Z,92.40
2018-07-08T23:33:39.269Z,92.10
2018-07-08T23:36:08.282Z,92.50
2018-07-08T23:38:36.756Z,92.40
2018-07-08T23:41:06.257Z,92.60
2018-07-08T23:43:34.750Z,92.70
2018-07-08T23:46:03.500Z,92.40
2018-07-08T23:48:32.544Z,93.60
2018-07-08T23:51:00.900Z,93.70
2018-07-08T23:53:29.478Z,93.90
2018-07-08T23:55:57.908Z,94.40
2018-07-08T23:58:26.180Z,94.60
